sensor_id;sensor_type;location;lat;lon;timestamp;temperature;humidity
48912;DHT22;34722;52.108;5.044;2023-08-06T00:02:21;15.40;99.90
48912;DHT22;34722;52.108;5.044;2023-08-06T00:04:47;15.50;99.90
48912;DHT22;34722;52.108;5.044;2023-08-06T00:07:12;15.40;99.90
48912;DHT22;34722;52.108;5.044;2023-08-06T00:09:38;15.40;99.90
48912;DHT22;34722;52.108;5.044;2023-08-06T00:12:04;15.40;99.90
48912;DHT22;34722;52.108;5.044;2023-08-06T00:14:30;15.40;99.90
48912;DHT22;34722;52.108;5.044;2023-08-06T00:16:55;15.40;99.90
48912;DHT22;34722;52.108;5.044;2023-08-06T00:19:22;15.40;99.90
48912;DHT22;34722;52.108;5.044;2023-08-06T00:21:47;15.40;99.90
48912;DHT22;34722;52.108;5.044;2023-08-06T00:24:13;15.40;99.90
48912;DHT22;34722;52.108;5.044;2023-08-06T00:26:39;15.40;99.90
48912;DHT22;34722;52.108;5.044;2023-08-06T00:29:04;15.40;99.90
48912;DHT22;34722;52.108;5.044;2023-08-06T00:31:30;15.30;99.90
48912;DHT22;34722;52.108;5.044;2023-08-06T00:33:55;15.40;99.90
48912;DHT22;34722;52.108;5.044;2023-08-06T00:36:21;15.40;99.90
48912;DHT22;34722;52.108;5.044;2023-08-06T00:38:47;15.40;99.90
48912;DHT22;34722;52.108;5.044;2023-08-06T00:41:12;15.40;99.90
48912;DHT22;34722;52.108;5.044;2023-08-06T00:43:38;15.40;99.90
48912;DHT22;34722;52.108;5.044;2023-08-06T00:46:04;15.40;99.90
48912;DHT22;34722;52.108;5.044;2023-08-06T00:48:29;15.40;99.90
48912;DHT22;34722;52.108;5.044;2023-08-06T00:50:55;15.40;99.90
48912;DHT22;34722;52.108;5.044;2023-08-06T00:53:21;15.40;99.90
48912;DHT22;34722;52.108;5.044;2023-08-06T00:55:47;15.30;99.90
48912;DHT22;34722;52.108;5.044;2023-08-06T00:58:14;15.40;99.90
48912;DHT22;34722;52.108;5.044;2023-08-06T01:00:40;15.30;99.90
48912;DHT22;34722;52.108;5.044;2023-08-06T01:03:06;15.40;99.90
48912;DHT22;34722;52.108;5.044;2023-08-06T01:05:32;15.30;99.90
48912;DHT22;34722;52.108;5.044;2023-08-06T01:13:48;15.40;99.90
48912;DHT22;34722;52.108;5.044;2023-08-06T01:16:18;15.40;99.90
48912;DHT22;34722;52.108;5.044;2023-08-06T01:18:46;15.40;99.90
48912;DHT22;34722;52.108;5.044;2023-08-06T01:21:15;15.40;99.90
48912;DHT22;34722;52.108;5.044;2023-08-06T01:23:42;15.40;99.90
48912;DHT22;34722;52.108;5.044;2023-08-06T01:31:42;15.40;99.90
48912;DHT22;34722;52.108;5.044;2023-08-06T01:34:17;15.30;99.90
48912;DHT22;34722;52.108;5.044;2023-08-06T01:36:45;15.30;99.90
48912;DHT22;34722;52.108;5.044;2023-08-06T01:39:10;15.30;99.90
48912;DHT22;34722;52.108;5.044;2023-08-06T01:41:36;15.30;99.90
48912;DHT22;34722;52.108;5.044;2023-08-06T01:44:02;15.30;99.90
48912;DHT22;34722;52.108;5.044;2023-08-06T01:46:27;15.30;99.90
48912;DHT22;34722;52.108;5.044;2023-08-06T01:48:53;15.30;99.90
48912;DHT22;34722;52.108;5.044;2023-08-06T01:51:18;15.30;99.90
48912;DHT22;34722;52.108;5.044;2023-08-06T01:53:44;15.30;99.90
48912;DHT22;34722;52.108;5.044;2023-08-06T01:56:10;15.20;99.90
48912;DHT22;34722;52.108;5.044;2023-08-06T01:58:35;15.20;99.90
48912;DHT22;34722;52.108;5.044;2023-08-06T02:01:02;15.20;99.90
48912;DHT22;34722;52.108;5.044;2023-08-06T02:03:29;15.30;99.90
48912;DHT22;34722;52.108;5.044;2023-08-06T02:05:55;15.30;99.90
48912;DHT22;34722;52.108;5.044;2023-08-06T02:08:20;15.30;99.90
48912;DHT22;34722;52.108;5.044;2023-08-06T02:10:46;15.30;99.90
48912;DHT22;34722;52.108;5.044;2023-08-06T02:13:11;15.30;99.90
48912;DHT22;34722;52.108;5.044;2023-08-06T02:15:44;15.30;99.90
48912;DHT22;34722;52.108;5.044;2023-08-06T02:18:10;15.40;99.90
48912;DHT22;34722;52.108;5.044;2023-08-06T02:20:36;15.30;99.90
48912;DHT22;34722;52.108;5.044;2023-08-06T02:23:02;15.30;99.90
48912;DHT22;34722;52.108;5.044;2023-08-06T02:25:27;15.40;99.90
48912;DHT22;34722;52.108;5.044;2023-08-06T02:27:53;15.40;99.90
48912;DHT22;34722;52.108;5.044;2023-08-06T02:30:18;15.40;99.90
48912;DHT22;34722;52.108;5.044;2023-08-06T02:32:44;15.40;99.90
48912;DHT22;34722;52.108;5.044;2023-08-06T02:35:10;15.40;99.90
48912;DHT22;34722;52.108;5.044;2023-08-06T02:37:35;15.40;99.90
48912;DHT22;34722;52.108;5.044;2023-08-06T02:40:01;15.40;99.90
48912;DHT22;34722;52.108;5.044;2023-08-06T02:42:27;15.30;99.90
48912;DHT22;34722;52.108;5.044;2023-08-06T02:44:53;15.40;99.90
48912;DHT22;34722;52.108;5.044;2023-08-06T02:47:22;15.40;99.90
48912;DHT22;34722;52.108;5.044;2023-08-06T02:49:47;15.40;99.90
48912;DHT22;34722;52.108;5.044;2023-08-06T02:52:13;15.40;99.90
48912;DHT22;34722;52.108;5.044;2023-08-06T02:54:39;15.40;99.90
48912;DHT22;34722;52.108;5.044;2023-08-06T02:57:05;15.40;99.90
48912;DHT22;34722;52.108;5.044;2023-08-06T02:59:31;15.40;99.90
48912;DHT22;34722;52.108;5.044;2023-08-06T03:01:57;15.40;99.90
48912;DHT22;34722;52.108;5.044;2023-08-06T03:04:23;15.40;99.90
48912;DHT22;34722;52.108;5.044;2023-08-06T03:06:52;15.40;99.90
48912;DHT22;34722;52.108;5.044;2023-08-06T03:09:18;15.40;99.90
48912;DHT22;34722;52.108;5.044;2023-08-06T03:11:43;15.40;99.90
48912;DHT22;34722;52.108;5.044;2023-08-06T03:14:09;15.40;99.90
48912;DHT22;34722;52.108;5.044;2023-08-06T03:16:35;15.40;99.90
48912;DHT22;34722;52.108;5.044;2023-08-06T03:19:01;15.50;99.90
48912;DHT22;34722;52.108;5.044;2023-08-06T03:21:27;15.50;99.90
48912;DHT22;34722;52.108;5.044;2023-08-06T03:23:52;15.50;99.90
48912;DHT22;34722;52.108;5.044;2023-08-06T03:26:18;15.50;99.90
48912;DHT22;34722;52.108;5.044;2023-08-06T03:28:44;15.50;99.90
48912;DHT22;34722;52.108;5.044;2023-08-06T03:31:09;15.50;99.90
48912;DHT22;34722;52.108;5.044;2023-08-06T03:33:35;15.50;99.90
48912;DHT22;34722;52.108;5.044;2023-08-06T03:36:01;15.40;99.90
48912;DHT22;34722;52.108;5.044;2023-08-06T03:38:26;15.50;99.90
48912;DHT22;34722;52.108;5.044;2023-08-06T03:40:53;15.50;99.90
48912;DHT22;34722;52.108;5.044;2023-08-06T03:43:18;15.50;99.90
48912;DHT22;34722;52.108;5.044;2023-08-06T03:45:44;15.40;99.90
48912;DHT22;34722;52.108;5.044;2023-08-06T03:48:10;15.40;99.90
48912;DHT22;34722;52.108;5.044;2023-08-06T03:50:35;15.50;99.90
48912;DHT22;34722;52.108;5.044;2023-08-06T03:53:01;15.50;99.90
48912;DHT22;34722;52.108;5.044;2023-08-06T03:55:27;15.40;99.90
48912;DHT22;34722;52.108;5.044;2023-08-06T03:57:53;15.40;99.90
48912;DHT22;34722;52.108;5.044;2023-08-06T04:00:18;15.50;99.90
48912;DHT22;34722;52.108;5.044;2023-08-06T04:02:44;15.50;99.90
48912;DHT22;34722;52.108;5.044;2023-08-06T04:05:10;15.50;99.90
48912;DHT22;34722;52.108;5.044;2023-08-06T04:07:35;15.50;99.90
48912;DHT22;34722;52.108;5.044;2023-08-06T04:10:03;15.40;99.90
48912;DHT22;34722;52.108;5.044;2023-08-06T04:12:30;15.50;99.90
48912;DHT22;34722;52.108;5.044;2023-08-06T04:14:57;15.50;99.90
48912;DHT22;34722;52.108;5.044;2023-08-06T04:17:23;15.50;99.90
48912;DHT22;34722;52.108;5.044;2023-08-06T04:19:51;15.50;99.90
48912;DHT22;34722;52.108;5.044;2023-08-06T04:22:17;15.50;99.90
48912;DHT22;34722;52.108;5.044;2023-08-06T04:24:43;15.50;99.90
48912;DHT22;34722;52.108;5.044;2023-08-06T04:27:09;15.50;99.90
48912;DHT22;34722;52.108;5.044;2023-08-06T04:29:36;15.40;99.90
48912;DHT22;34722;52.108;5.044;2023-08-06T04:32:03;15.40;99.90
48912;DHT22;34722;52.108;5.044;2023-08-06T04:34:28;15.40;99.90
48912;DHT22;34722;52.108;5.044;2023-08-06T04:36:54;15.40;99.90
48912;DHT22;34722;52.108;5.044;2023-08-06T04:39:20;15.40;99.90
48912;DHT22;34722;52.108;5.044;2023-08-06T04:41:45;15.40;99.90
48912;DHT22;34722;52.108;5.044;2023-08-06T04:44:11;15.40;99.90
48912;DHT22;34722;52.108;5.044;2023-08-06T04:46:36;15.40;99.90
48912;DHT22;34722;52.108;5.044;2023-08-06T04:49:02;15.40;99.90
48912;DHT22;34722;52.108;5.044;2023-08-06T04:51:27;15.40;99.90
48912;DHT22;34722;52.108;5.044;2023-08-06T04:53:53;15.40;99.90
48912;DHT22;34722;52.108;5.044;2023-08-06T04:56:19;15.40;99.90
48912;DHT22;34722;52.108;5.044;2023-08-06T04:58:44;15.40;99.90
48912;DHT22;34722;52.108;5.044;2023-08-06T05:01:10;15.40;99.90
48912;DHT22;34722;52.108;5.044;2023-08-06T05:03:35;15.40;99.90
48912;DHT22;34722;52.108;5.044;2023-08-06T05:06:01;15.50;99.90
48912;DHT22;34722;52.108;5.044;2023-08-06T05:08:27;15.50;99.90
48912;DHT22;34722;52.108;5.044;2023-08-06T05:10:53;15.40;99.90
48912;DHT22;34722;52.108;5.044;2023-08-06T05:13:19;15.40;99.90
48912;DHT22;34722;52.108;5.044;2023-08-06T05:15:45;15.50;99.90
48912;DHT22;34722;52.108;5.044;2023-08-06T05:18:12;15.40;99.90
48912;DHT22;34722;52.108;5.044;2023-08-06T05:20:39;15.40;99.90
48912;DHT22;34722;52.108;5.044;2023-08-06T05:23:05;15.40;99.90
48912;DHT22;34722;52.108;5.044;2023-08-06T05:25:30;15.40;99.90
48912;DHT22;34722;52.108;5.044;2023-08-06T05:27:56;15.40;99.90
48912;DHT22;34722;52.108;5.044;2023-08-06T05:30:21;15.30;99.90
48912;DHT22;34722;52.108;5.044;2023-08-06T05:32:47;15.30;99.90
48912;DHT22;34722;52.108;5.044;2023-08-06T05:35:13;15.30;99.90
48912;DHT22;34722;52.108;5.044;2023-08-06T05:37:38;15.20;99.90
48912;DHT22;34722;52.108;5.044;2023-08-06T05:40:04;15.20;99.90
48912;DHT22;34722;52.108;5.044;2023-08-06T05:42:30;15.20;99.90
48912;DHT22;34722;52.108;5.044;2023-08-06T05:44:56;15.20;99.90
48912;DHT22;34722;52.108;5.044;2023-08-06T05:47:21;15.20;99.90
48912;DHT22;34722;52.108;5.044;2023-08-06T05:49:47;15.20;99.90
48912;DHT22;34722;52.108;5.044;2023-08-06T05:52:12;15.30;99.90
48912;DHT22;34722;52.108;5.044;2023-08-06T05:54:38;15.30;99.90
48912;DHT22;34722;52.108;5.044;2023-08-06T05:57:06;15.30;99.90
48912;DHT22;34722;52.108;5.044;2023-08-06T05:59:31;15.20;99.90
48912;DHT22;34722;52.108;5.044;2023-08-06T06:01:57;15.10;99.90
48912;DHT22;34722;52.108;5.044;2023-08-06T06:04:23;15.10;99.90
48912;DHT22;34722;52.108;5.044;2023-08-06T06:06:49;15.10;99.90
48912;DHT22;34722;52.108;5.044;2023-08-06T06:09:14;15.10;99.90
48912;DHT22;34722;52.108;5.044;2023-08-06T06:11:40;15.00;99.90
48912;DHT22;34722;52.108;5.044;2023-08-06T06:14:05;15.00;99.90
48912;DHT22;34722;52.108;5.044;2023-08-06T06:16:31;15.00;99.90
48912;DHT22;34722;52.108;5.044;2023-08-06T06:18:56;15.00;99.90
48912;DHT22;34722;52.108;5.044;2023-08-06T06:21:23;15.00;99.90
48912;DHT22;34722;52.108;5.044;2023-08-06T06:23:49;15.10;99.90
48912;DHT22;34722;52.108;5.044;2023-08-06T06:26:19;15.10;99.90
48912;DHT22;34722;52.108;5.044;2023-08-06T06:28:45;15.20;99.90
48912;DHT22;34722;52.108;5.044;2023-08-06T06:31:10;15.20;99.90
48912;DHT22;34722;52.108;5.044;2023-08-06T06:33:36;15.30;99.90
48912;DHT22;34722;52.108;5.044;2023-08-06T06:36:01;15.40;99.90
48912;DHT22;34722;52.108;5.044;2023-08-06T06:38:30;15.40;99.90
48912;DHT22;34722;52.108;5.044;2023-08-06T06:40:56;15.40;99.90
48912;DHT22;34722;52.108;5.044;2023-08-06T06:43:23;15.40;99.90
48912;DHT22;34722;52.108;5.044;2023-08-06T06:45:58;15.40;99.90
48912;DHT22;34722;52.108;5.044;2023-08-06T06:48:28;15.40;99.90
48912;DHT22;34722;52.108;5.044;2023-08-06T06:50:55;15.50;99.90
48912;DHT22;34722;52.108;5.044;2023-08-06T06:53:20;15.50;99.90
48912;DHT22;34722;52.108;5.044;2023-08-06T06:55:48;15.50;99.90
48912;DHT22;34722;52.108;5.044;2023-08-06T06:58:15;15.60;99.90
48912;DHT22;34722;52.108;5.044;2023-08-06T07:00:41;15.60;99.90
48912;DHT22;34722;52.108;5.044;2023-08-06T07:03:07;15.60;99.90
48912;DHT22;34722;52.108;5.044;2023-08-06T07:05:33;15.60;99.90
48912;DHT22;34722;52.108;5.044;2023-08-06T07:07:58;15.70;99.90
48912;DHT22;34722;52.108;5.044;2023-08-06T07:10:24;15.80;99.90
48912;DHT22;34722;52.108;5.044;2023-08-06T07:12:49;15.90;99.90
48912;DHT22;34722;52.108;5.044;2023-08-06T07:15:15;15.90;99.90
48912;DHT22;34722;52.108;5.044;2023-08-06T07:17:43;16.00;99.90
48912;DHT22;34722;52.108;5.044;2023-08-06T07:20:09;16.00;99.90
48912;DHT22;34722;52.108;5.044;2023-08-06T07:22:34;16.00;99.90
48912;DHT22;34722;52.108;5.044;2023-08-06T07:25:01;16.10;99.90
48912;DHT22;34722;52.108;5.044;2023-08-06T07:27:26;16.00;99.90
48912;DHT22;34722;52.108;5.044;2023-08-06T07:29:52;16.10;99.90
48912;DHT22;34722;52.108;5.044;2023-08-06T07:32:18;16.10;99.90
48912;DHT22;34722;52.108;5.044;2023-08-06T07:34:43;16.20;99.90
48912;DHT22;34722;52.108;5.044;2023-08-06T07:37:09;16.20;99.90
48912;DHT22;34722;52.108;5.044;2023-08-06T07:39:35;16.30;99.90
48912;DHT22;34722;52.108;5.044;2023-08-06T07:42:03;16.40;99.90
48912;DHT22;34722;52.108;5.044;2023-08-06T07:44:31;16.50;99.90
48912;DHT22;34722;52.108;5.044;2023-08-06T07:46:56;16.50;99.90
48912;DHT22;34722;52.108;5.044;2023-08-06T07:49:22;16.40;99.90
48912;DHT22;34722;52.108;5.044;2023-08-06T07:51:48;16.50;99.90
48912;DHT22;34722;52.108;5.044;2023-08-06T07:54:13;16.50;99.90
48912;DHT22;34722;52.108;5.044;2023-08-06T07:56:39;16.30;99.90
48912;DHT22;34722;52.108;5.044;2023-08-06T07:59:05;16.40;99.90
48912;DHT22;34722;52.108;5.044;2023-08-06T08:01:31;16.50;99.90
48912;DHT22;34722;52.108;5.044;2023-08-06T08:03:56;16.50;99.90
48912;DHT22;34722;52.108;5.044;2023-08-06T08:06:22;16.60;99.90
48912;DHT22;34722;52.108;5.044;2023-08-06T08:08:48;16.50;99.90
48912;DHT22;34722;52.108;5.044;2023-08-06T08:11:14;16.40;99.90
48912;DHT22;34722;52.108;5.044;2023-08-06T08:14:02;16.40;99.90
48912;DHT22;34722;52.108;5.044;2023-08-06T08:23:06;16.50;99.90
48912;DHT22;34722;52.108;5.044;2023-08-06T08:25:32;16.40;99.90
48912;DHT22;34722;52.108;5.044;2023-08-06T08:27:59;16.40;99.90
48912;DHT22;34722;52.108;5.044;2023-08-06T08:30:25;16.50;99.90
48912;DHT22;34722;52.108;5.044;2023-08-06T08:32:50;16.60;99.90
48912;DHT22;34722;52.108;5.044;2023-08-06T08:35:16;16.70;99.90
48912;DHT22;34722;52.108;5.044;2023-08-06T08:37:43;16.70;99.90
48912;DHT22;34722;52.108;5.044;2023-08-06T08:40:09;16.70;99.90
48912;DHT22;34722;52.108;5.044;2023-08-06T08:42:36;16.70;99.90
48912;DHT22;34722;52.108;5.044;2023-08-06T08:45:04;16.80;99.90
48912;DHT22;34722;52.108;5.044;2023-08-06T08:47:30;16.80;99.90
48912;DHT22;34722;52.108;5.044;2023-08-06T08:49:57;16.70;99.90
48912;DHT22;34722;52.108;5.044;2023-08-06T08:52:23;16.50;99.90
48912;DHT22;34722;52.108;5.044;2023-08-06T08:54:54;16.60;99.90
48912;DHT22;34722;52.108;5.044;2023-08-06T08:57:20;16.70;99.90
48912;DHT22;34722;52.108;5.044;2023-08-06T08:59:46;16.80;99.90
48912;DHT22;34722;52.108;5.044;2023-08-06T09:02:15;16.80;99.90
48912;DHT22;34722;52.108;5.044;2023-08-06T09:04:42;16.90;99.90
48912;DHT22;34722;52.108;5.044;2023-08-06T09:07:42;16.90;99.90
48912;DHT22;34722;52.108;5.044;2023-08-06T09:10:15;16.90;99.90
48912;DHT22;34722;52.108;5.044;2023-08-06T09:12:46;17.00;99.90
48912;DHT22;34722;52.108;5.044;2023-08-06T09:15:15;17.10;99.90
48912;DHT22;34722;52.108;5.044;2023-08-06T09:17:44;17.20;99.90
48912;DHT22;34722;52.108;5.044;2023-08-06T09:20:13;17.30;99.90
48912;DHT22;34722;52.108;5.044;2023-08-06T09:22:39;17.20;99.90
48912;DHT22;34722;52.108;5.044;2023-08-06T09:25:06;17.30;99.90
48912;DHT22;34722;52.108;5.044;2023-08-06T09:27:38;17.20;99.90
48912;DHT22;34722;52.108;5.044;2023-08-06T09:30:05;17.20;99.90
48912;DHT22;34722;52.108;5.044;2023-08-06T09:32:45;17.20;99.90
48912;DHT22;34722;52.108;5.044;2023-08-06T09:35:17;17.20;99.90
48912;DHT22;34722;52.108;5.044;2023-08-06T09:37:43;17.00;99.90
48912;DHT22;34722;52.108;5.044;2023-08-06T09:40:25;17.00;99.90
48912;DHT22;34722;52.108;5.044;2023-08-06T09:42:52;16.80;99.90
48912;DHT22;34722;52.108;5.044;2023-08-06T09:45:17;16.70;99.90
48912;DHT22;34722;52.108;5.044;2023-08-06T09:47:46;16.70;99.90
48912;DHT22;34722;52.108;5.044;2023-08-06T09:50:19;16.60;99.90
48912;DHT22;34722;52.108;5.044;2023-08-06T09:52:45;16.60;99.90
48912;DHT22;34722;52.108;5.044;2023-08-06T09:55:18;16.40;99.90
48912;DHT22;34722;52.108;5.044;2023-08-06T09:57:47;16.30;99.90
48912;DHT22;34722;52.108;5.044;2023-08-06T10:00:13;16.30;99.90
48912;DHT22;34722;52.108;5.044;2023-08-06T10:02:40;16.40;99.90
48912;DHT22;34722;52.108;5.044;2023-08-06T10:05:07;16.60;99.90
48912;DHT22;34722;52.108;5.044;2023-08-06T10:07:33;16.70;99.90
48912;DHT22;34722;52.108;5.044;2023-08-06T10:10:02;16.80;99.90
48912;DHT22;34722;52.108;5.044;2023-08-06T10:12:31;16.90;99.90
48912;DHT22;34722;52.108;5.044;2023-08-06T10:15:01;16.90;99.90
48912;DHT22;34722;52.108;5.044;2023-08-06T10:17:33;17.00;99.90
48912;DHT22;34722;52.108;5.044;2023-08-06T10:20:00;17.00;99.90
48912;DHT22;34722;52.108;5.044;2023-08-06T10:22:26;17.20;99.90
48912;DHT22;34722;52.108;5.044;2023-08-06T10:24:53;17.30;99.90
48912;DHT22;34722;52.108;5.044;2023-08-06T10:32:50;17.60;99.90
48912;DHT22;34722;52.108;5.044;2023-08-06T10:35:43;17.60;99.90
48912;DHT22;34722;52.108;5.044;2023-08-06T10:38:19;17.60;99.90
48912;DHT22;34722;52.108;5.044;2023-08-06T10:41:01;17.50;99.90
48912;DHT22;34722;52.108;5.044;2023-08-06T10:43:30;17.50;99.90
48912;DHT22;34722;52.108;5.044;2023-08-06T10:45:58;17.40;99.90
48912;DHT22;34722;52.108;5.044;2023-08-06T10:48:33;17.40;99.90
48912;DHT22;34722;52.108;5.044;2023-08-06T10:51:00;17.50;99.90
48912;DHT22;34722;52.108;5.044;2023-08-06T10:53:26;17.20;99.90
48912;DHT22;34722;52.108;5.044;2023-08-06T10:55:52;17.20;99.90
48912;DHT22;34722;52.108;5.044;2023-08-06T10:58:18;17.20;99.90
48912;DHT22;34722;52.108;5.044;2023-08-06T11:00:43;17.10;99.90
48912;DHT22;34722;52.108;5.044;2023-08-06T11:03:09;16.80;99.90
48912;DHT22;34722;52.108;5.044;2023-08-06T11:05:39;16.90;99.90
48912;DHT22;34722;52.108;5.044;2023-08-06T11:08:07;16.70;99.90
48912;DHT22;34722;52.108;5.044;2023-08-06T11:10:36;16.80;99.90
48912;DHT22;34722;52.108;5.044;2023-08-06T11:13:03;16.80;99.90
48912;DHT22;34722;52.108;5.044;2023-08-06T11:15:30;16.80;99.90
48912;DHT22;34722;52.108;5.044;2023-08-06T11:17:56;16.80;99.90
48912;DHT22;34722;52.108;5.044;2023-08-06T11:20:23;16.80;99.90
48912;DHT22;34722;52.108;5.044;2023-08-06T11:22:50;16.70;99.90
48912;DHT22;34722;52.108;5.044;2023-08-06T11:25:16;16.50;99.90
48912;DHT22;34722;52.108;5.044;2023-08-06T11:27:41;16.60;99.90
48912;DHT22;34722;52.108;5.044;2023-08-06T11:30:07;16.40;99.90
48912;DHT22;34722;52.108;5.044;2023-08-06T11:32:45;16.30;99.90
48912;DHT22;34722;52.108;5.044;2023-08-06T11:35:48;16.40;99.90
48912;DHT22;34722;52.108;5.044;2023-08-06T11:38:14;16.40;99.90
48912;DHT22;34722;52.108;5.044;2023-08-06T11:40:55;16.30;99.90
48912;DHT22;34722;52.108;5.044;2023-08-06T11:43:21;16.40;99.90
48912;DHT22;34722;52.108;5.044;2023-08-06T11:45:51;16.40;99.90
48912;DHT22;34722;52.108;5.044;2023-08-06T11:48:19;16.50;99.90
48912;DHT22;34722;52.108;5.044;2023-08-06T11:50:45;16.70;99.90
48912;DHT22;34722;52.108;5.044;2023-08-06T11:53:20;16.80;99.90
48912;DHT22;34722;52.108;5.044;2023-08-06T11:55:46;17.10;99.90
48912;DHT22;34722;52.108;5.044;2023-08-06T11:58:12;17.30;99.90
48912;DHT22;34722;52.108;5.044;2023-08-06T12:00:38;17.40;99.90
48912;DHT22;34722;52.108;5.044;2023-08-06T12:03:07;17.40;99.90
48912;DHT22;34722;52.108;5.044;2023-08-06T12:05:33;17.50;99.90
48912;DHT22;34722;52.108;5.044;2023-08-06T12:08:00;17.50;99.90
48912;DHT22;34722;52.108;5.044;2023-08-06T12:10:39;17.50;99.90
48912;DHT22;34722;52.108;5.044;2023-08-06T12:13:07;17.50;99.90
48912;DHT22;34722;52.108;5.044;2023-08-06T12:15:33;17.70;99.90
48912;DHT22;34722;52.108;5.044;2023-08-06T12:17:59;17.60;99.90
48912;DHT22;34722;52.108;5.044;2023-08-06T12:20:27;17.60;99.90
48912;DHT22;34722;52.108;5.044;2023-08-06T12:23:01;17.60;99.90
48912;DHT22;34722;52.108;5.044;2023-08-06T12:25:30;17.60;99.90
48912;DHT22;34722;52.108;5.044;2023-08-06T12:27:56;17.70;99.90
48912;DHT22;34722;52.108;5.044;2023-08-06T12:30:28;17.60;99.90
48912;DHT22;34722;52.108;5.044;2023-08-06T12:32:53;17.70;99.90
48912;DHT22;34722;52.108;5.044;2023-08-06T12:35:22;17.70;99.90
48912;DHT22;34722;52.108;5.044;2023-08-06T12:37:48;17.80;99.90
48912;DHT22;34722;52.108;5.044;2023-08-06T12:40:14;17.70;99.90
48912;DHT22;34722;52.108;5.044;2023-08-06T12:42:40;17.70;99.90
48912;DHT22;34722;52.108;5.044;2023-08-06T12:45:10;17.60;99.90
48912;DHT22;34722;52.108;5.044;2023-08-06T12:47:36;17.60;99.90
48912;DHT22;34722;52.108;5.044;2023-08-06T12:50:03;17.80;99.90
48912;DHT22;34722;52.108;5.044;2023-08-06T12:52:29;17.80;99.90
48912;DHT22;34722;52.108;5.044;2023-08-06T12:54:58;17.90;99.90
48912;DHT22;34722;52.108;5.044;2023-08-06T12:57:24;17.80;99.90
48912;DHT22;34722;52.108;5.044;2023-08-06T12:59:50;18.00;99.90
48912;DHT22;34722;52.108;5.044;2023-08-06T13:02:18;18.10;99.90
48912;DHT22;34722;52.108;5.044;2023-08-06T13:04:46;18.20;99.90
48912;DHT22;34722;52.108;5.044;2023-08-06T13:07:14;18.10;99.90
48912;DHT22;34722;52.108;5.044;2023-08-06T13:09:43;18.10;99.90
48912;DHT22;34722;52.108;5.044;2023-08-06T13:12:09;17.80;99.90
48912;DHT22;34722;52.108;5.044;2023-08-06T13:14:35;17.70;99.90
48912;DHT22;34722;52.108;5.044;2023-08-06T13:17:00;17.60;99.90
48912;DHT22;34722;52.108;5.044;2023-08-06T13:19:27;17.60;99.90
48912;DHT22;34722;52.108;5.044;2023-08-06T13:22:03;17.60;99.90
48912;DHT22;34722;52.108;5.044;2023-08-06T13:24:30;17.60;99.90
48912;DHT22;34722;52.108;5.044;2023-08-06T13:26:56;17.60;99.90
48912;DHT22;34722;52.108;5.044;2023-08-06T13:29:22;17.80;99.90
48912;DHT22;34722;52.108;5.044;2023-08-06T13:31:50;17.70;99.90
48912;DHT22;34722;52.108;5.044;2023-08-06T13:34:16;17.70;99.90
48912;DHT22;34722;52.108;5.044;2023-08-06T13:36:42;17.70;99.90
48912;DHT22;34722;52.108;5.044;2023-08-06T13:39:14;17.80;99.90
48912;DHT22;34722;52.108;5.044;2023-08-06T13:41:42;17.60;99.90
48912;DHT22;34722;52.108;5.044;2023-08-06T13:44:12;17.50;99.90
48912;DHT22;34722;52.108;5.044;2023-08-06T13:46:39;17.40;99.90
48912;DHT22;34722;52.108;5.044;2023-08-06T13:49:10;17.40;99.90
48912;DHT22;34722;52.108;5.044;2023-08-06T13:51:36;17.30;99.90
48912;DHT22;34722;52.108;5.044;2023-08-06T13:54:03;17.10;99.90
48912;DHT22;34722;52.108;5.044;2023-08-06T13:56:29;17.30;99.90
48912;DHT22;34722;52.108;5.044;2023-08-06T13:58:55;17.30;99.90
48912;DHT22;34722;52.108;5.044;2023-08-06T14:01:21;17.30;99.90
48912;DHT22;34722;52.108;5.044;2023-08-06T14:03:51;17.20;99.90
48912;DHT22;34722;52.108;5.044;2023-08-06T14:06:19;17.00;99.90
48912;DHT22;34722;52.108;5.044;2023-08-06T14:08:45;16.90;99.90
48912;DHT22;34722;52.108;5.044;2023-08-06T14:11:11;16.80;99.90
48912;DHT22;34722;52.108;5.044;2023-08-06T14:13:37;16.80;99.90
48912;DHT22;34722;52.108;5.044;2023-08-06T14:16:03;16.80;99.90
48912;DHT22;34722;52.108;5.044;2023-08-06T14:18:31;16.80;99.90
48912;DHT22;34722;52.108;5.044;2023-08-06T14:20:59;16.90;99.90
48912;DHT22;34722;52.108;5.044;2023-08-06T14:23:25;16.70;99.90
48912;DHT22;34722;52.108;5.044;2023-08-06T14:25:51;16.60;99.90
48912;DHT22;34722;52.108;5.044;2023-08-06T14:28:17;16.60;99.90
48912;DHT22;34722;52.108;5.044;2023-08-06T14:30:43;16.50;99.90
48912;DHT22;34722;52.108;5.044;2023-08-06T14:33:12;16.30;99.90
48912;DHT22;34722;52.108;5.044;2023-08-06T14:35:37;16.10;99.90
48912;DHT22;34722;52.108;5.044;2023-08-06T14:38:03;16.00;99.90
48912;DHT22;34722;52.108;5.044;2023-08-06T14:40:30;15.90;99.90
48912;DHT22;34722;52.108;5.044;2023-08-06T14:43:00;15.70;99.90
48912;DHT22;34722;52.108;5.044;2023-08-06T14:45:32;15.70;99.90
48912;DHT22;34722;52.108;5.044;2023-08-06T14:47:58;15.70;99.90
48912;DHT22;34722;52.108;5.044;2023-08-06T14:50:23;15.80;99.90
48912;DHT22;34722;52.108;5.044;2023-08-06T14:52:49;15.80;99.90
48912;DHT22;34722;52.108;5.044;2023-08-06T14:55:24;15.80;99.90
48912;DHT22;34722;52.108;5.044;2023-08-06T14:57:51;15.70;99.90
48912;DHT22;34722;52.108;5.044;2023-08-06T15:00:17;15.60;99.90
48912;DHT22;34722;52.108;5.044;2023-08-06T15:02:43;15.60;99.90
48912;DHT22;34722;52.108;5.044;2023-08-06T15:05:11;15.60;99.90
48912;DHT22;34722;52.108;5.044;2023-08-06T15:07:38;15.50;99.90
48912;DHT22;34722;52.108;5.044;2023-08-06T15:10:05;15.50;99.90
48912;DHT22;34722;52.108;5.044;2023-08-06T15:12:32;15.50;99.90
48912;DHT22;34722;52.108;5.044;2023-08-06T15:15:01;15.50;99.90
48912;DHT22;34722;52.108;5.044;2023-08-06T15:17:27;15.40;99.90
48912;DHT22;34722;52.108;5.044;2023-08-06T15:19:58;15.30;99.90
48912;DHT22;34722;52.108;5.044;2023-08-06T15:22:33;15.30;99.90
48912;DHT22;34722;52.108;5.044;2023-08-06T15:25:03;15.20;99.90
48912;DHT22;34722;52.108;5.044;2023-08-06T15:27:29;15.30;99.90
48912;DHT22;34722;52.108;5.044;2023-08-06T15:45:20;15.90;99.90
48912;DHT22;34722;52.108;5.044;2023-08-06T15:47:45;15.80;99.90
48912;DHT22;34722;52.108;5.044;2023-08-06T15:50:14;15.70;99.90
48912;DHT22;34722;52.108;5.044;2023-08-06T15:52:39;15.60;99.90
48912;DHT22;34722;52.108;5.044;2023-08-06T15:55:05;15.40;99.90
48912;DHT22;34722;52.108;5.044;2023-08-06T15:57:33;15.40;99.90
48912;DHT22;34722;52.108;5.044;2023-08-06T15:59:58;15.40;99.90
48912;DHT22;34722;52.108;5.044;2023-08-06T16:02:24;15.50;99.90
48912;DHT22;34722;52.108;5.044;2023-08-06T16:04:50;15.50;99.90
48912;DHT22;34722;52.108;5.044;2023-08-06T16:07:16;15.60;99.90
48912;DHT22;34722;52.108;5.044;2023-08-06T16:09:45;15.70;99.90